Arzamas, Russia
Current Conditions -  °F | °C
As of 11:00 PM on Friday 31 Oct 2014 (Local Time) from UWGG Reporting Station
Haze Haze  
Wind Chill: -2°   Ceiling: 10000
Heat Index:   Visibility: 3mi
Dew Point: -2°   Wind: 4mph
Humidity: 87%   Direction: 280°W
Pressure: 30.03"   Gusts: NA
Location:  55.38°N, 43.82°E
Report Text: UWGG 312000Z 28002MPS 5000 BR SCT033 BKN100 M00/M02 Q1017 NOSIG36090060 RMK QFE755
Loading
Personal Weather Stations






























Interactive Weather Map
Tropical Storm Tracking
New forecast layout! Learn more

10-Day Weather Forecast

Advertisements
Track Severe Weather on mobile